sensor_id;sensor_type;location;lat;lon;timestamp;pressure;altitude;pressure_sealevel;temperature;humidity
55032;BME280;40928;51.076;7.950;2023-05-20T00:01:54;97665.56;;;7.36;99.57
55032;BME280;40928;51.076;7.950;2023-05-20T00:04:20;97650.66;;;7.35;99.71
55032;BME280;40928;51.076;7.950;2023-05-20T00:06:45;97659.63;;;7.34;99.97
55032;BME280;40928;51.076;7.950;2023-05-20T00:09:11;97658.44;;;7.30;100.00
55032;BME280;40928;51.076;7.950;2023-05-20T00:11:37;97649.63;;;7.23;100.00
55032;BME280;40928;51.076;7.950;2023-05-20T00:14:02;97658.59;;;7.22;100.00
55032;BME280;40928;51.076;7.950;2023-05-20T00:16:27;97656.97;;;7.21;100.00
55032;BME280;40928;51.076;7.950;2023-05-20T00:18:53;97660.22;;;7.16;100.00
55032;BME280;40928;51.076;7.950;2023-05-20T00:21:19;97661.84;;;7.10;100.00
55032;BME280;40928;51.076;7.950;2023-05-20T00:23:44;97663.09;;;7.08;100.00
55032;BME280;40928;51.076;7.950;2023-05-20T00:26:10;97655.69;;;7.03;100.00
55032;BME280;40928;51.076;7.950;2023-05-20T00:28:35;97655.06;;;7.01;100.00
55032;BME280;40928;51.076;7.950;2023-05-20T00:31:01;97654.88;;;6.96;100.00
55032;BME280;40928;51.076;7.950;2023-05-20T00:33:26;97662.84;;;6.96;100.00
55032;BME280;40928;51.076;7.950;2023-05-20T00:35:52;97654.88;;;6.96;100.00
55032;BME280;40928;51.076;7.950;2023-05-20T00:38:17;97650.56;;;6.95;100.00
55032;BME280;40928;51.076;7.950;2023-05-20T00:40:43;97646.69;;;6.91;100.00
55032;BME280;40928;51.076;7.950;2023-05-20T00:43:08;97646.06;;;6.89;100.00
55032;BME280;40928;51.076;7.950;2023-05-20T00:45:34;97635.81;;;6.85;100.00
55032;BME280;40928;51.076;7.950;2023-05-20T00:48:01;97643.00;;;6.85;100.00
55032;BME280;40928;51.076;7.950;2023-05-20T00:50:28;97641.94;;;6.79;100.00
55032;BME280;40928;51.076;7.950;2023-05-20T00:52:54;97643.13;;;6.70;100.00
55032;BME280;40928;51.076;7.950;2023-05-20T00:55:20;97643.09;;;6.63;100.00
55032;BME280;40928;51.076;7.950;2023-05-20T00:57:47;97639.03;;;6.61;100.00
55032;BME280;40928;51.076;7.950;2023-05-20T01:00:13;97639.22;;;6.59;100.00
55032;BME280;40928;51.076;7.950;2023-05-20T01:02:39;97631.25;;;6.59;100.00
55032;BME280;40928;51.076;7.950;2023-05-20T01:05:05;97633.09;;;6.59;100.00
55032;BME280;40928;51.076;7.950;2023-05-20T01:07:31;97628.78;;;6.58;100.00
55032;BME280;40928;51.076;7.950;2023-05-20T01:09:57;97626.13;;;6.58;100.00
55032;BME280;40928;51.076;7.950;2023-05-20T01:12:31;97622.28;;;6.53;100.00
55032;BME280;40928;51.076;7.950;2023-05-20T01:15:08;97614.06;;;6.48;100.00
55032;BME280;40928;51.076;7.950;2023-05-20T01:17:37;97606.06;;;6.35;100.00
55032;BME280;40928;51.076;7.950;2023-05-20T01:20:04;97609.50;;;6.29;100.00
55032;BME280;40928;51.076;7.950;2023-05-20T01:22:32;97608.44;;;6.23;100.00
55032;BME280;40928;51.076;7.950;2023-05-20T01:24:58;97612.94;;;6.22;100.00
55032;BME280;40928;51.076;7.950;2023-05-20T01:27:24;97600.69;;;6.21;100.00
55032;BME280;40928;51.076;7.950;2023-05-20T01:29:51;97603.13;;;6.23;100.00
55032;BME280;40928;51.076;7.950;2023-05-20T01:32:19;97611.31;;;6.21;100.00
55032;BME280;40928;51.076;7.950;2023-05-20T01:34:49;97608.66;;;6.21;100.00
55032;BME280;40928;51.076;7.950;2023-05-20T01:37:16;97599.47;;;6.24;100.00
55032;BME280;40928;51.076;7.950;2023-05-20T01:39:43;97608.44;;;6.23;100.00
55032;BME280;40928;51.076;7.950;2023-05-20T01:42:09;97596.41;;;6.20;100.00
55032;BME280;40928;51.076;7.950;2023-05-20T01:44:35;97595.78;;;6.18;100.00
55032;BME280;40928;51.076;7.950;2023-05-20T01:47:01;97590.63;;;6.10;100.00
55032;BME280;40928;51.076;7.950;2023-05-20T01:49:27;97588.38;;;6.07;100.00
55032;BME280;40928;51.076;7.950;2023-05-20T01:51:53;97586.50;;;6.01;100.00
55032;BME280;40928;51.076;7.950;2023-05-20T01:54:18;97587.50;;;6.00;100.00
55032;BME280;40928;51.076;7.950;2023-05-20T01:56:45;97578.72;;;5.99;100.00
55032;BME280;40928;51.076;7.950;2023-05-20T01:59:12;97578.28;;;5.95;100.00
55032;BME280;40928;51.076;7.950;2023-05-20T02:01:38;97580.09;;;5.88;100.00
55032;BME280;40928;51.076;7.950;2023-05-20T02:04:03;97579.84;;;5.83;100.00
55032;BME280;40928;51.076;7.950;2023-05-20T02:06:29;97584.13;;;5.84;100.00
55032;BME280;40928;51.076;7.950;2023-05-20T02:08:55;97582.09;;;5.86;100.00
55032;BME280;40928;51.076;7.950;2023-05-20T02:11:20;97576.44;;;5.89;100.00
55032;BME280;40928;51.076;7.950;2023-05-20T02:13:46;97580.50;;;5.92;100.00
55032;BME280;40928;51.076;7.950;2023-05-20T02:16:12;97577.06;;;5.91;100.00
55032;BME280;40928;51.076;7.950;2023-05-20T02:18:38;97576.00;;;5.92;100.00
55032;BME280;40928;51.076;7.950;2023-05-20T02:21:04;97580.13;;;5.95;100.00
55032;BME280;40928;51.076;7.950;2023-05-20T02:23:30;97566.88;;;5.95;100.00
55032;BME280;40928;51.076;7.950;2023-05-20T02:25:57;97574.44;;;5.98;100.00
55032;BME280;40928;51.076;7.950;2023-05-20T02:28:22;97569.94;;;5.99;100.00
55032;BME280;40928;51.076;7.950;2023-05-20T02:30:48;97571.59;;;6.00;100.00
55032;BME280;40928;51.076;7.950;2023-05-20T02:33:20;97568.75;;;6.01;100.00
55032;BME280;40928;51.076;7.950;2023-05-20T02:35:45;97561.00;;;6.00;100.00
55032;BME280;40928;51.076;7.950;2023-05-20T02:38:12;97576.25;;;5.98;100.00
55032;BME280;40928;51.076;7.950;2023-05-20T02:40:38;97567.47;;;5.90;100.00
55032;BME280;40928;51.076;7.950;2023-05-20T02:43:03;97566.59;;;5.83;100.00
55032;BME280;40928;51.076;7.950;2023-05-20T02:45:29;97565.56;;;5.84;100.00
55032;BME280;40928;51.076;7.950;2023-05-20T02:47:55;97562.13;;;5.84;100.00
55032;BME280;40928;51.076;7.950;2023-05-20T02:50:20;97568.22;;;5.84;100.00
55032;BME280;40928;51.076;7.950;2023-05-20T02:52:46;97569.41;;;5.75;100.00
55032;BME280;40928;51.076;7.950;2023-05-20T02:55:12;97565.25;;;5.66;100.00
55032;BME280;40928;51.076;7.950;2023-05-20T02:57:38;97561.34;;;5.61;100.00
55032;BME280;40928;51.076;7.950;2023-05-20T03:00:07;97559.72;;;5.60;100.00
55032;BME280;40928;51.076;7.950;2023-05-20T03:02:35;97565.63;;;5.62;100.00
55032;BME280;40928;51.076;7.950;2023-05-20T03:05:01;97559.16;;;5.65;100.00
55032;BME280;40928;51.076;7.950;2023-05-20T03:07:28;97561.22;;;5.70;100.00
55032;BME280;40928;51.076;7.950;2023-05-20T03:09:53;97557.16;;;5.74;100.00
55032;BME280;40928;51.076;7.950;2023-05-20T03:12:19;97558.75;;;5.68;100.00
55032;BME280;40928;51.076;7.950;2023-05-20T03:14:44;97555.25;;;5.61;100.00
55032;BME280;40928;51.076;7.950;2023-05-20T03:17:11;97560.13;;;5.57;100.00
55032;BME280;40928;51.076;7.950;2023-05-20T03:19:37;97557.47;;;5.57;100.00
55032;BME280;40928;51.076;7.950;2023-05-20T03:22:03;97563.41;;;5.59;100.00
55032;BME280;40928;51.076;7.950;2023-05-20T03:24:30;97557.25;;;5.59;100.00
55032;BME280;40928;51.076;7.950;2023-05-20T03:26:56;97561.13;;;5.56;100.00
55032;BME280;40928;51.076;7.950;2023-05-20T03:29:22;97558.84;;;5.53;100.00
55032;BME280;40928;51.076;7.950;2023-05-20T03:31:47;97561.13;;;5.56;100.00
55032;BME280;40928;51.076;7.950;2023-05-20T03:34:13;97558.91;;;5.60;100.00
55032;BME280;40928;51.076;7.950;2023-05-20T03:36:39;97566.47;;;5.63;100.00
55032;BME280;40928;51.076;7.950;2023-05-20T03:39:04;97566.03;;;5.59;100.00
55032;BME280;40928;51.076;7.950;2023-05-20T03:41:31;97556.03;;;5.61;100.00
55032;BME280;40928;51.076;7.950;2023-05-20T03:43:57;97563.63;;;5.64;100.00
55032;BME280;40928;51.076;7.950;2023-05-20T03:46:23;97556.91;;;5.69;100.00
55032;BME280;40928;51.076;7.950;2023-05-20T03:48:49;97555.72;;;5.71;100.00
55032;BME280;40928;51.076;7.950;2023-05-20T03:51:15;97558.81;;;5.75;100.00
55032;BME280;40928;51.076;7.950;2023-05-20T03:53:41;97555.56;;;5.79;100.00
55032;BME280;40928;51.076;7.950;2023-05-20T03:56:07;97564.56;;;5.85;100.00
55032;BME280;40928;51.076;7.950;2023-05-20T03:58:34;97562.53;;;5.87;100.00
55032;BME280;40928;51.076;7.950;2023-05-20T04:01:03;97561.16;;;5.91;100.00
55032;BME280;40928;51.076;7.950;2023-05-20T04:03:29;97565.03;;;5.95;100.00
55032;BME280;40928;51.076;7.950;2023-05-20T04:05:55;97559.16;;;6.00;100.00
55032;BME280;40928;51.076;7.950;2023-05-20T04:08:21;97561.25;;;6.05;100.00
55032;BME280;40928;51.076;7.950;2023-05-20T04:10:54;97554.94;;;6.06;100.00
55032;BME280;40928;51.076;7.950;2023-05-20T04:13:19;97558.41;;;6.13;100.00
55032;BME280;40928;51.076;7.950;2023-05-20T04:15:46;97546.19;;;6.19;100.00
55032;BME280;40928;51.076;7.950;2023-05-20T04:18:12;97551.53;;;6.25;100.00
55032;BME280;40928;51.076;7.950;2023-05-20T04:20:39;97556.25;;;6.30;100.00
55032;BME280;40928;51.076;7.950;2023-05-20T04:23:09;97559.53;;;6.39;100.00
55032;BME280;40928;51.076;7.950;2023-05-20T04:25:35;97560.19;;;6.48;100.00
55032;BME280;40928;51.076;7.950;2023-05-20T04:28:01;97556.75;;;6.54;100.00
55032;BME280;40928;51.076;7.950;2023-05-20T04:30:27;97554.72;;;6.56;100.00
55032;BME280;40928;51.076;7.950;2023-05-20T04:32:54;97555.13;;;6.60;100.00
55032;BME280;40928;51.076;7.950;2023-05-20T04:35:20;97552.69;;;6.65;100.00
55032;BME280;40928;51.076;7.950;2023-05-20T04:37:47;97548.00;;;6.74;100.00
55032;BME280;40928;51.076;7.950;2023-05-20T04:40:13;97553.13;;;6.82;100.00
55032;BME280;40928;51.076;7.950;2023-05-20T04:42:39;97555.78;;;6.89;100.00
55032;BME280;40928;51.076;7.950;2023-05-20T04:45:05;97550.50;;;6.95;100.00
55032;BME280;40928;51.076;7.950;2023-05-20T04:47:34;97543.97;;;7.05;100.00
55032;BME280;40928;51.076;7.950;2023-05-20T04:50:07;97551.13;;;7.18;100.00
55032;BME280;40928;51.076;7.950;2023-05-20T04:52:39;97551.56;;;7.28;100.00
55032;BME280;40928;51.076;7.950;2023-05-20T04:55:07;97552.34;;;7.35;100.00
55032;BME280;40928;51.076;7.950;2023-05-20T04:57:37;97554.59;;;7.45;100.00
55032;BME280;40928;51.076;7.950;2023-05-20T05:00:06;97540.91;;;7.55;100.00
55032;BME280;40928;51.076;7.950;2023-05-20T05:02:33;97546.81;;;7.64;100.00
55032;BME280;40928;51.076;7.950;2023-05-20T05:04:59;97542.09;;;7.72;100.00
55032;BME280;40928;51.076;7.950;2023-05-20T05:07:25;97537.00;;;7.77;100.00
55032;BME280;40928;51.076;7.950;2023-05-20T05:09:51;97541.44;;;7.84;100.00
55032;BME280;40928;51.076;7.950;2023-05-20T05:12:16;97547.78;;;7.89;100.00
55032;BME280;40928;51.076;7.950;2023-05-20T05:14:42;97543.28;;;7.97;100.00
55032;BME280;40928;51.076;7.950;2023-05-20T05:17:08;97539.56;;;8.04;100.00
55032;BME280;40928;51.076;7.950;2023-05-20T05:19:34;97543.63;;;8.14;100.00
55032;BME280;40928;51.076;7.950;2023-05-20T05:21:59;97544.41;;;8.21;100.00
55032;BME280;40928;51.076;7.950;2023-05-20T05:24:25;97540.31;;;8.25;100.00
55032;BME280;40928;51.076;7.950;2023-05-20T05:26:54;97547.66;;;8.30;100.00
55032;BME280;40928;51.076;7.950;2023-05-20T05:29:20;97540.69;;;8.35;100.00
55032;BME280;40928;51.076;7.950;2023-05-20T05:31:45;97544.94;;;8.43;100.00
55032;BME280;40928;51.076;7.950;2023-05-20T05:34:11;97538.78;;;8.49;100.00
55032;BME280;40928;51.076;7.950;2023-05-20T05:36:38;97534.63;;;8.60;100.00
55032;BME280;40928;51.076;7.950;2023-05-20T05:39:04;97527.44;;;8.67;100.00
55032;BME280;40928;51.076;7.950;2023-05-20T05:41:31;97521.66;;;8.77;100.00
55032;BME280;40928;51.076;7.950;2023-05-20T05:43:57;97519.56;;;8.86;100.00
55032;BME280;40928;51.076;7.950;2023-05-20T05:46:23;97525.63;;;8.93;100.00
55032;BME280;40928;51.076;7.950;2023-05-20T05:48:49;97530.47;;;9.03;100.00
55032;BME280;40928;51.076;7.950;2023-05-20T05:51:16;97526.75;;;9.11;100.00
55032;BME280;40928;51.076;7.950;2023-05-20T05:53:42;97526.03;;;9.22;100.00
55032;BME280;40928;51.076;7.950;2023-05-20T05:56:08;97526.81;;;9.29;100.00
55032;BME280;40928;51.076;7.950;2023-05-20T05:58:35;97520.75;;;9.41;100.00
55032;BME280;40928;51.076;7.950;2023-05-20T06:01:02;97524.75;;;9.50;100.00
55032;BME280;40928;51.076;7.950;2023-05-20T06:03:28;97519.97;;;9.59;100.00
55032;BME280;40928;51.076;7.950;2023-05-20T06:05:54;97522.13;;;9.69;100.00
55032;BME280;40928;51.076;7.950;2023-05-20T06:08:20;97522.44;;;9.79;100.00
55032;BME280;40928;51.076;7.950;2023-05-20T06:10:49;97519.47;;;9.87;100.00
55032;BME280;40928;51.076;7.950;2023-05-20T06:13:16;97524.53;;;9.96;100.00
55032;BME280;40928;51.076;7.950;2023-05-20T06:15:41;97520.06;;;10.08;100.00
55032;BME280;40928;51.076;7.950;2023-05-20T06:18:07;97517.09;;;10.16;100.00
55032;BME280;40928;51.076;7.950;2023-05-20T06:20:33;97519.47;;;10.25;100.00
55032;BME280;40928;51.076;7.950;2023-05-20T06:22:58;97513.13;;;10.38;100.00
55032;BME280;40928;51.076;7.950;2023-05-20T06:25:30;97517.03;;;10.42;100.00
55032;BME280;40928;51.076;7.950;2023-05-20T06:27:56;97517.53;;;10.50;100.00
55032;BME280;40928;51.076;7.950;2023-05-20T06:30:22;97513.38;;;10.55;100.00
55032;BME280;40928;51.076;7.950;2023-05-20T06:32:48;97515.13;;;10.61;100.00
55032;BME280;40928;51.076;7.950;2023-05-20T06:35:15;97514.47;;;10.65;100.00
55032;BME280;40928;51.076;7.950;2023-05-20T06:37:40;97507.41;;;10.83;100.00
55032;BME280;40928;51.076;7.950;2023-05-20T06:40:06;97509.28;;;10.82;100.00
55032;BME280;40928;51.076;7.950;2023-05-20T06:42:35;97504.19;;;10.93;100.00
55032;BME280;40928;51.076;7.950;2023-05-20T06:45:02;97505.22;;;10.92;100.00
55032;BME280;40928;51.076;7.950;2023-05-20T06:47:59;97498.16;;;10.98;100.00
55032;BME280;40928;51.076;7.950;2023-05-20T06:50:25;97503.63;;;11.03;100.00
55032;BME280;40928;51.076;7.950;2023-05-20T06:52:53;97496.53;;;11.08;100.00
55032;BME280;40928;51.076;7.950;2023-05-20T06:55:19;97493.75;;;11.15;100.00
55032;BME280;40928;51.076;7.950;2023-05-20T06:57:45;97494.22;;;11.24;100.00
55032;BME280;40928;51.076;7.950;2023-05-20T07:00:12;97489.00;;;11.29;100.00
55032;BME280;40928;51.076;7.950;2023-05-20T07:02:40;97490.78;;;11.35;100.00
55032;BME280;40928;51.076;7.950;2023-05-20T07:05:06;97492.28;;;11.43;100.00
55032;BME280;40928;51.076;7.950;2023-05-20T07:07:33;97488.06;;;11.47;100.00
55032;BME280;40928;51.076;7.950;2023-05-20T07:09:58;97487.50;;;11.57;100.00
55032;BME280;40928;51.076;7.950;2023-05-20T07:12:24;97482.47;;;11.61;100.00
55032;BME280;40928;51.076;7.950;2023-05-20T07:14:49;97485.75;;;11.63;100.00
55032;BME280;40928;51.076;7.950;2023-05-20T07:17:15;97489.34;;;11.68;100.00
55032;BME280;40928;51.076;7.950;2023-05-20T07:19:42;97480.63;;;11.73;100.00
55032;BME280;40928;51.076;7.950;2023-05-20T07:22:08;97485.28;;;11.78;100.00
55032;BME280;40928;51.076;7.950;2023-05-20T07:24:45;97484.81;;;11.81;100.00
55032;BME280;40928;51.076;7.950;2023-05-20T07:27:10;97478.28;;;11.88;100.00
55032;BME280;40928;51.076;7.950;2023-05-20T07:29:37;97470.34;;;11.94;100.00
55032;BME280;40928;51.076;7.950;2023-05-20T07:32:03;97467.91;;;11.92;100.00
55032;BME280;40928;51.076;7.950;2023-05-20T07:34:29;97470.84;;;11.91;100.00
55032;BME280;40928;51.076;7.950;2023-05-20T07:36:56;97480.13;;;12.00;100.00
55032;BME280;40928;51.076;7.950;2023-05-20T07:39:22;97475.13;;;12.03;100.00
55032;BME280;40928;51.076;7.950;2023-05-20T07:41:48;97469.28;;;12.07;100.00
55032;BME280;40928;51.076;7.950;2023-05-20T07:44:14;97463.94;;;12.07;100.00
55032;BME280;40928;51.076;7.950;2023-05-20T07:46:45;97472.09;;;12.12;100.00
55032;BME280;40928;51.076;7.950;2023-05-20T07:49:11;97467.06;;;12.15;100.00
55032;BME280;40928;51.076;7.950;2023-05-20T07:51:38;97468.69;;;12.16;100.00
55032;BME280;40928;51.076;7.950;2023-05-20T07:54:05;97465.28;;;12.21;100.00
55032;BME280;40928;51.076;7.950;2023-05-20T07:56:31;97464.81;;;12.24;100.00
55032;BME280;40928;51.076;7.950;2023-05-20T07:58:59;97466.41;;;12.37;100.00
55032;BME280;40928;51.076;7.950;2023-05-20T08:01:28;97470.13;;;12.36;100.00
55032;BME280;40928;51.076;7.950;2023-05-20T08:03:54;97470.34;;;12.34;100.00
55032;BME280;40928;51.076;7.950;2023-05-20T08:06:22;97467.69;;;12.34;100.00
55032;BME280;40928;51.076;7.950;2023-05-20T08:08:51;97468.94;;;12.44;99.65
55032;BME280;40928;51.076;7.950;2023-05-20T08:11:26;97464.97;;;12.46;99.64
55032;BME280;40928;51.076;7.950;2023-05-20T08:13:52;97475.69;;;12.46;99.64
55032;BME280;40928;51.076;7.950;2023-05-20T08:16:17;97474.16;;;12.51;98.92
55032;BME280;40928;51.076;7.950;2023-05-20T08:18:44;97477.72;;;12.56;99.02
55032;BME280;40928;51.076;7.950;2023-05-20T08:21:11;97475.53;;;12.53;99.05
55032;BME280;40928;51.076;7.950;2023-05-20T08:23:36;97465.97;;;12.57;98.54
55032;BME280;40928;51.076;7.950;2023-05-20T08:26:03;97472.94;;;12.58;98.57
55032;BME280;40928;51.076;7.950;2023-05-20T08:28:30;97466.47;;;12.71;98.14
55032;BME280;40928;51.076;7.950;2023-05-20T08:30:57;97469.38;;;12.70;97.34
55032;BME280;40928;51.076;7.950;2023-05-20T08:33:23;97476.94;;;12.73;97.70
55032;BME280;40928;51.076;7.950;2023-05-20T08:35:49;97468.44;;;12.76;97.71
55032;BME280;40928;51.076;7.950;2023-05-20T08:38:14;97480.75;;;12.77;96.87
55032;BME280;40928;51.076;7.950;2023-05-20T08:40:40;97474.13;;;12.79;96.10
55032;BME280;40928;51.076;7.950;2023-05-20T08:43:06;97476.16;;;12.89;95.68
55032;BME280;40928;51.076;7.950;2023-05-20T08:45:33;97471.22;;;12.98;94.16
55032;BME280;40928;51.076;7.950;2023-05-20T08:48:05;97479.31;;;13.03;94.31
55032;BME280;40928;51.076;7.950;2023-05-20T08:50:32;97481.53;;;13.06;93.91
55032;BME280;40928;51.076;7.950;2023-05-20T08:52:58;97483.94;;;13.08;94.46
55032;BME280;40928;51.076;7.950;2023-05-20T08:57:54;97482.50;;;13.17;93.34
55032;BME280;40928;51.076;7.950;2023-05-20T09:00:21;97476.97;;;13.24;93.07
55032;BME280;40928;51.076;7.950;2023-05-20T09:02:54;97474.13;;;13.31;93.71
55032;BME280;40928;51.076;7.950;2023-05-20T09:05:21;97468.69;;;13.43;93.06
55032;BME280;40928;51.076;7.950;2023-05-20T09:07:47;97482.03;;;13.54;92.86
55032;BME280;40928;51.076;7.950;2023-05-20T09:10:13;97471.91;;;13.62;92.09
55032;BME280;40928;51.076;7.950;2023-05-20T09:12:39;97475.25;;;13.69;91.65
55032;BME280;40928;51.076;7.950;2023-05-20T09:15:05;97470.25;;;13.78;90.44
55032;BME280;40928;51.076;7.950;2023-05-20T09:17:34;97478.53;;;13.76;89.70
55032;BME280;40928;51.076;7.950;2023-05-20T09:20:00;97466.88;;;13.88;90.30
55032;BME280;40928;51.076;7.950;2023-05-20T09:22:27;97472.81;;;13.90;89.31
55032;BME280;40928;51.076;7.950;2023-05-20T09:24:54;97465.63;;;13.95;89.18
55032;BME280;40928;51.076;7.950;2023-05-20T09:27:20;97464.94;;;14.05;88.65
55032;BME280;40928;51.076;7.950;2023-05-20T09:29:50;97465.63;;;14.18;87.55
55032;BME280;40928;51.076;7.950;2023-05-20T09:32:16;97456.88;;;14.27;87.39
55032;BME280;40928;51.076;7.950;2023-05-20T09:34:42;97458.41;;;14.45;87.35
55032;BME280;40928;51.076;7.950;2023-05-20T09:37:17;97452.50;;;14.49;86.92
55032;BME280;40928;51.076;7.950;2023-05-20T09:39:55;97460.19;;;14.62;86.50
55032;BME280;40928;51.076;7.950;2023-05-20T09:42:30;97447.66;;;14.73;84.85
55032;BME280;40928;51.076;7.950;2023-05-20T09:45:00;97456.91;;;14.82;82.93
55032;BME280;40928;51.076;7.950;2023-05-20T09:47:28;97445.38;;;14.87;82.78
55032;BME280;40928;51.076;7.950;2023-05-20T09:49:55;97444.88;;;14.90;83.15
55032;BME280;40928;51.076;7.950;2023-05-20T09:52:24;97450.84;;;14.97;82.29
55032;BME280;40928;51.076;7.950;2023-05-20T09:54:52;97448.69;;;14.99;82.70
55032;BME280;40928;51.076;7.950;2023-05-20T09:57:20;97453.63;;;15.07;82.39
55032;BME280;40928;51.076;7.950;2023-05-20T09:59:46;97455.25;;;15.09;82.14
55032;BME280;40928;51.076;7.950;2023-05-20T10:02:14;97457.16;;;15.13;82.28
55032;BME280;40928;51.076;7.950;2023-05-20T10:04:43;97459.66;;;15.25;80.60
55032;BME280;40928;51.076;7.950;2023-05-20T10:07:25;97456.88;;;15.15;80.66
55032;BME280;40928;51.076;7.950;2023-05-20T10:12:46;97460.19;;;15.27;79.78
55032;BME280;40928;51.076;7.950;2023-05-20T10:15:25;97454.81;;;15.27;80.77
55032;BME280;40928;51.076;7.950;2023-05-20T10:20:56;97462.94;;;15.32;79.60
55032;BME280;40928;51.076;7.950;2023-05-20T10:23:23;97471.66;;;15.50;79.22
55032;BME280;40928;51.076;7.950;2023-05-20T10:25:53;97456.78;;;15.37;79.71
55032;BME280;40928;51.076;7.950;2023-05-20T10:28:32;97460.06;;;15.44;79.44
55032;BME280;40928;51.076;7.950;2023-05-20T10:30:59;97455.00;;;15.58;79.17
55032;BME280;40928;51.076;7.950;2023-05-20T10:33:28;97462.06;;;15.64;77.50
55032;BME280;40928;51.076;7.950;2023-05-20T10:35:58;97455.41;;;15.77;77.68
55032;BME280;40928;51.076;7.950;2023-05-20T10:38:24;97467.00;;;15.83;77.43
55032;BME280;40928;51.076;7.950;2023-05-20T10:40:51;97445.69;;;15.76;77.47
55032;BME280;40928;51.076;7.950;2023-05-20T10:43:25;97455.75;;;15.91;77.76
55032;BME280;40928;51.076;7.950;2023-05-20T10:45:54;97447.13;;;15.89;77.24
55032;BME280;40928;51.076;7.950;2023-05-20T10:48:29;97455.94;;;15.79;76.34
55032;BME280;40928;51.076;7.950;2023-05-20T10:51:00;97458.38;;;15.81;76.38
55032;BME280;40928;51.076;7.950;2023-05-20T10:53:36;97460.84;;;15.88;76.35
55032;BME280;40928;51.076;7.950;2023-05-20T10:56:02;97447.28;;;15.72;76.84
55032;BME280;40928;51.076;7.950;2023-05-20T10:58:35;97445.66;;;15.71;77.44
55032;BME280;40928;51.076;7.950;2023-05-20T11:01:01;97445.66;;;15.71;77.67
55032;BME280;40928;51.076;7.950;2023-05-20T11:03:28;97440.56;;;15.70;77.35
55032;BME280;40928;51.076;7.950;2023-05-20T11:05:54;97443.34;;;15.85;76.73
55032;BME280;40928;51.076;7.950;2023-05-20T11:08:19;97441.78;;;16.00;76.53
55032;BME280;40928;51.076;7.950;2023-05-20T11:10:46;97447.22;;;16.10;75.41
55032;BME280;40928;51.076;7.950;2023-05-20T11:13:12;97445.31;;;16.05;74.78
55032;BME280;40928;51.076;7.950;2023-05-20T11:15:40;97451.78;;;16.04;75.34
55032;BME280;40928;51.076;7.950;2023-05-20T11:18:06;97444.47;;;16.05;75.32
55032;BME280;40928;51.076;7.950;2023-05-20T11:20:31;97448.53;;;16.02;74.92
55032;BME280;40928;51.076;7.950;2023-05-20T11:23:00;97440.44;;;16.02;75.40
55032;BME280;40928;51.076;7.950;2023-05-20T11:25:26;97444.72;;;15.98;75.69
55032;BME280;40928;51.076;7.950;2023-05-20T11:27:52;97444.25;;;16.06;75.71
55032;BME280;40928;51.076;7.950;2023-05-20T11:30:18;97442.84;;;15.93;75.23
55032;BME280;40928;51.076;7.950;2023-05-20T11:33:01;97434.75;;;15.93;75.58
55032;BME280;40928;51.076;7.950;2023-05-20T11:35:28;97432.31;;;15.87;75.49
55032;BME280;40928;51.076;7.950;2023-05-20T11:38:01;97439.34;;;15.98;74.70
55032;BME280;40928;51.076;7.950;2023-05-20T11:40:27;97436.13;;;15.96;74.97
55032;BME280;40928;51.076;7.950;2023-05-20T11:42:58;97423.50;;;16.02;74.97
55032;BME280;40928;51.076;7.950;2023-05-20T11:45:24;97423.72;;;16.00;74.64
55032;BME280;40928;51.076;7.950;2023-05-20T11:50:24;97418.66;;;16.09;73.88
55032;BME280;40928;51.076;7.950;2023-05-20T11:52:57;97413.56;;;16.28;73.96
55032;BME280;40928;51.076;7.950;2023-05-20T11:55:23;97418.75;;;16.50;72.49
55032;BME280;40928;51.076;7.950;2023-05-20T11:57:49;97417.13;;;16.49;71.97
55032;BME280;40928;51.076;7.950;2023-05-20T12:00:15;97420.34;;;16.41;72.48
55032;BME280;40928;51.076;7.950;2023-05-20T12:02:40;97411.72;;;16.39;72.50
55032;BME280;40928;51.076;7.950;2023-05-20T12:05:06;97424.38;;;16.38;72.47
55032;BME280;40928;51.076;7.950;2023-05-20T12:07:32;97417.63;;;16.25;72.73
55032;BME280;40928;51.076;7.950;2023-05-20T12:09:58;97417.34;;;16.22;72.57
55032;BME280;40928;51.076;7.950;2023-05-20T12:12:23;97411.38;;;16.04;72.95
55032;BME280;40928;51.076;7.950;2023-05-20T12:14:50;97417.03;;;16.08;73.33
55032;BME280;40928;51.076;7.950;2023-05-20T12:17:15;97407.31;;;16.02;74.07
55032;BME280;40928;51.076;7.950;2023-05-20T12:19:41;97403.81;;;16.01;74.36
55032;BME280;40928;51.076;7.950;2023-05-20T12:22:06;97408.41;;;16.06;73.76
55032;BME280;40928;51.076;7.950;2023-05-20T12:24:32;97407.88;;;16.09;73.82
55032;BME280;40928;51.076;7.950;2023-05-20T12:26:57;97403.81;;;16.01;73.95
55032;BME280;40928;51.076;7.950;2023-05-20T12:29:23;97411.88;;;16.01;74.36
55032;BME280;40928;51.076;7.950;2023-05-20T12:31:49;97417.78;;;15.98;74.32
55032;BME280;40928;51.076;7.950;2023-05-20T12:34:14;97413.47;;;15.92;74.02
55032;BME280;40928;51.076;7.950;2023-05-20T12:36:40;97407.03;;;15.93;74.42
55032;BME280;40928;51.076;7.950;2023-05-20T12:39:05;97414.22;;;15.82;74.72
55032;BME280;40928;51.076;7.950;2023-05-20T12:41:31;97410.94;;;15.75;75.16
55032;BME280;40928;51.076;7.950;2023-05-20T12:43:57;97396.66;;;15.64;75.34
55032;BME280;40928;51.076;7.950;2023-05-20T12:46:22;97410.88;;;15.59;74.70
55032;BME280;40928;51.076;7.950;2023-05-20T12:48:48;97403.31;;;15.51;75.54
55032;BME280;40928;51.076;7.950;2023-05-20T12:51:13;97397.66;;;15.47;75.66
55032;BME280;40928;51.076;7.950;2023-05-20T12:53:39;97395.72;;;15.37;76.91
55032;BME280;40928;51.076;7.950;2023-05-20T12:56:04;97380.88;;;15.35;77.46
55032;BME280;40928;51.076;7.950;2023-05-20T12:58:30;97385.41;;;15.29;78.17
55032;BME280;40928;51.076;7.950;2023-05-20T13:00:55;97380.31;;;15.28;77.82
55032;BME280;40928;51.076;7.950;2023-05-20T13:03:21;97381.66;;;15.25;77.13
55032;BME280;40928;51.076;7.950;2023-05-20T13:05:46;97386.72;;;15.21;77.64
55032;BME280;40928;51.076;7.950;2023-05-20T13:08:12;97381.66;;;15.25;77.28
55032;BME280;40928;51.076;7.950;2023-05-20T13:10:39;97377.03;;;15.20;78.16